Time;durP1;ratioP1;P1;durP2;ratioP2;P2;SDS_P1;SDS_P2;PMS_P1;PMS_P2;Temp;Humidity;BMP_temperature;BMP_pressure;BME280_temperature;BME280_humidity;BME280_pressure;Samples;Min_cycle;Max_cycle;Signal;HPM_P1;HPM_P2
2022/11/30 00:00:50;;;;;;;;;;;;;;;;;;5014647;28;2037;-76
2022/11/30 00:03:16;;;;;;;;;;;;;;;;;;5014655;28;1306;-76
2022/11/30 00:05:42;;;;;;;;;;;;;;;;;;5015081;28;1354;-76
2022/11/30 00:08:10;;;;;;;;;;;;;;;;;;5015119;28;1286;-75
2022/11/30 00:10:37;;;;;;;;;;;;;;;;;;5014740;28;1161;-75
2022/11/30 00:13:03;;;;;;;;;;;;;;;;;;5014090;28;1303;-76
2022/11/30 00:15:30;;;;;;;;;;;;;;;;;;5014973;28;1199;-76
2022/11/30 00:17:56;;;;;;;;;;;;;;;;;;5014639;28;1902;-77
2022/11/30 00:20:23;;;;;;;;;;;;;;;;;;5015102;28;1120;-76
2022/11/30 00:22:49;;;;;;;;;;;;;;;;;;5014209;28;1444;-75
2022/11/30 00:25:17;;;;;;;;;;;;;;;;;;5015345;28;1236;-76
2022/11/30 00:27:43;;;;;;;;;;;;;;;;;;5014651;28;1417;-76
2022/11/30 00:30:10;;;;;;;;;;;;;;;;;;5031521;28;1129;-76
2022/11/30 00:32:36;;;;;;;;;;;;;;;;;;5015362;28;1252;-76
2022/11/30 00:35:03;;;;;;;;;;;;;;;;;;5034973;28;1128;-76
2022/11/30 00:37:30;;;;;;;;;;;;;;;;;;5034762;28;1961;-75
2022/11/30 00:39:56;;;;;;;;;;;;;;;;;;5035164;28;1165;-76
2022/11/30 00:42:24;;;;;;;;;;;;;;;;;;5034659;28;1184;-76
2022/11/30 00:44:50;;;;;;;;;;;;;;;;;;5018734;28;1147;-75
2022/11/30 00:47:16;;;;;;;;;;;;;;;;;;5035108;28;1189;-76
2022/11/30 00:49:43;;;;;;;;;;;;;;;;;;5036073;28;1356;-75
2022/11/30 00:52:09;;;;;;;;;;;;;;;;;;5035522;28;914;-75
2022/11/30 00:54:35;;;;;;;;;;;;;;;;;;5034935;28;1387;-76
2022/11/30 00:57:01;;;;;;;;;;;;;;;;;;5018514;28;1125;-76
2022/11/30 00:59:30;;;;;;;;;;;;;;;;;;5018585;28;1989;-76
2022/11/30 01:01:56;;;;;;;;;;;;;;;;;;5018812;28;1164;-76
2022/11/30 01:04:23;;;;;;;;;;;;;;;;;;5021830;28;1188;-76
2022/11/30 01:06:49;;;;;;;;;;;;;;;;;;5023920;28;1159;-75
2022/11/30 01:09:16;;;;;;;;;;;;;;;;;;5022152;28;1312;-75
2022/11/30 01:11:42;;;;;;;;;;;;;;;;;;5017531;28;1148;-76
2022/11/30 01:14:09;;;;;;;;;;;;;;;;;;5034220;28;1167;-76
2022/11/30 01:16:37;;;;;;;;;;;;;;;;;;5017882;28;1300;-76
2022/11/30 01:19:03;;;;;;;;;;;;;;;;;;5017879;28;2006;-76
2022/11/30 01:21:29;;;;;;;;;;;;;;;;;;5017176;28;1264;-76
2022/11/30 01:23:56;;;;;;;;;;;;;;;;;;5017716;28;1054;-76
2022/11/30 01:26:22;;;;;;;;;;;;;;;;;;5035770;28;924;-75
2022/11/30 01:28:49;;;;;;;;;;;;;;;;;;5017712;28;1379;-75
2022/11/30 01:31:16;;;;;;;;;;;;;;;;;;5017140;28;1165;-74
2022/11/30 01:33:43;;;;;;;;;;;;;;;;;;5017263;28;1141;-75
2022/11/30 01:36:10;;;;;;;;;;;;;;;;;;5017676;28;1106;-74
2022/11/30 01:38:37;;;;;;;;;;;;;;;;;;5017330;28;1982;-76
2022/11/30 01:41:04;;;;;;;;;;;;;;;;;;5017643;28;1215;-76
2022/11/30 01:43:37;;;;;;;;;;;;;;;;;;5016113;28;1218;-76
2022/11/30 01:46:03;;;;;;;;;;;;;;;;;;5017691;28;2511;-74
2022/11/30 01:51:11;;;;;;;;;;;;;;;;;;5039334;28;1951;-78
2022/11/30 01:53:37;;;;;;;;;;;;;;;;;;5046548;28;1321;-79
2022/11/30 01:56:03;;;;;;;;;;;;;;;;;;5032703;28;1159;-78
2022/11/30 01:58:29;;;;;;;;;;;;;;;;;;5028703;28;1895;-79
2022/11/30 02:00:56;;;;;;;;;;;;;;;;;;5023991;28;1354;-78
2022/11/30 02:03:23;;;;;;;;;;;;;;;;;;5023185;28;1076;-79
2022/11/30 02:05:49;;;;;;;;;;;;;;;;;;5029811;28;1793;-79
2022/11/30 02:08:17;;;;;;;;;;;;;;;;;;5048443;28;1831;-78
2022/11/30 02:10:44;;;;;;;;;;;;;;;;;;5056419;28;1432;-78
2022/11/30 02:13:20;;;;;;;;;;;;;;;;;;5039757;28;1256;-78
2022/11/30 02:15:48;;;;;;;;;;;;;;;;;;5043821;28;810;-79
2022/11/30 02:18:14;;;;;;;;;;;;;;;;;;5039963;28;1952;-77
2022/11/30 02:20:50;;;;;;;;;;;;;;;;;;5039034;28;1741;-79
2022/11/30 02:23:27;;;;;;;;;;;;;;;;;;5046147;28;1145;-79
2022/11/30 02:25:56;;;;;;;;;;;;;;;;;;5049044;28;771;-79
2022/11/30 02:28:45;;;;;;;;;;;;;;;;;;5043889;28;1434;-78
2022/11/30 02:31:12;;;;;;;;;;;;;;;;;;5043424;28;1044;-77
2022/11/30 02:33:38;;;;;;;;;;;;;;;;;;5041472;28;1383;-79
2022/11/30 02:36:05;;;;;;;;;;;;;;;;;;5043222;28;1079;-78
2022/11/30 02:38:31;;;;;;;;;;;;;;;;;;5042715;28;1970;-78
2022/11/30 02:40:57;;;;;;;;;;;;;;;;;;5042758;28;1345;-79
2022/11/30 02:43:24;;;;;;;;;;;;;;;;;;5041438;28;1096;-79
2022/11/30 02:45:53;;;;;;;;;;;;;;;;;;5044024;28;716;-79
2022/11/30 02:48:20;;;;;;;;;;;;;;;;;;5042056;28;1643;-79
2022/11/30 02:50:47;;;;;;;;;;;;;;;;;;5060878;28;1288;-78
2022/11/30 02:53:13;;;;;;;;;;;;;;;;;;5062210;28;763;-79
2022/11/30 02:55:39;;;;;;;;;;;;;;;;;;5062464;28;1091;-78
2022/11/30 02:58:06;;;;;;;;;;;;;;;;;;5063654;28;1975;-78
2022/11/30 03:00:32;;;;;;;;;;;;;;;;;;5063804;28;1358;-78
2022/11/30 03:02:59;;;;;;;;;;;;;;;;;;5061900;28;1071;-78
2022/11/30 03:05:26;;;;;;;;;;;;;;;;;;5060881;28;1194;-78
2022/11/30 03:07:52;;;;;;;;;;;;;;;;;;5062638;28;1000;-78
2022/11/30 03:10:18;;;;;;;;;;;;;;;;;;5061806;28;1369;-79
2022/11/30 03:12:44;;;;;;;;;;;;;;;;;;5061532;28;1179;-78
2022/11/30 03:15:11;;;;;;;;;;;;;;;;;;5061999;28;830;-78
2022/11/30 03:17:37;;;;;;;;;;;;;;;;;;5062112;28;1098;-78
2022/11/30 03:20:05;;;;;;;;;;;;;;;;;;5061360;28;1949;-78
2022/11/30 03:22:31;;;;;;;;;;;;;;;;;;5062019;28;838;-78
2022/11/30 03:24:57;;;;;;;;;;;;;;;;;;5063432;28;1047;-78
2022/11/30 03:27:24;;;;;;;;;;;;;;;;;;5062514;28;1071;-79
2022/11/30 03:29:50;;;;;;;;;;;;;;;;;;5062617;28;1362;-78
2022/11/30 03:32:16;;;;;;;;;;;;;;;;;;5061140;28;1171;-79
2022/11/30 03:34:42;;;;;;;;;;;;;;;;;;5063736;28;1111;-78
2022/11/30 03:37:10;;;;;;;;;;;;;;;;;;5063267;28;786;-79
2022/11/30 03:39:37;;;;;;;;;;;;;;;;;;5063099;28;1962;-78
2022/11/30 03:42:03;;;;;;;;;;;;;;;;;;5062285;28;834;-78
2022/11/30 03:44:29;;;;;;;;;;;;;;;;;;5061468;28;1271;-79
2022/11/30 03:46:55;;;;;;;;;;;;;;;;;;5062374;28;1142;-78
2022/11/30 03:49:22;;;;;;;;;;;;;;;;;;5060552;28;1383;-78
2022/11/30 03:51:48;;;;;;;;;;;;;;;;;;5061030;28;897;-78
2022/11/30 03:54:15;;;;;;;;;;;;;;;;;;5060591;28;1203;-78
2022/11/30 03:56:42;;;;;;;;;;;;;;;;;;5061103;28;1090;-79
2022/11/30 03:59:08;;;;;;;;;;;;;;;;;;5060796;28;1914;-77
2022/11/30 04:01:35;;;;;;;;;;;;;;;;;;5059497;28;1414;-78
2022/11/30 04:04:01;;;;;;;;;;;;;;;;;;5060998;28;1004;-79
2022/11/30 04:06:28;;;;;;;;;;;;;;;;;;5060117;28;1060;-78
2022/11/30 04:08:54;;;;;;;;;;;;;;;;;;5060039;28;1994;-78
2022/11/30 04:11:22;;;;;;;;;;;;;;;;;;5049500;28;1760;-77
2022/11/30 04:13:48;;;;;;;;;;;;;;;;;;5033578;28;2747;-79
2022/11/30 04:16:14;;;;;;;;;;;;;;;;;;5040905;28;1102;-78
2022/11/30 04:18:40;;;;;;;;;;;;;;;;;;5039359;28;1915;-79
2022/11/30 04:21:07;;;;;;;;;;;;;;;;;;5039826;28;1233;-78
2022/11/30 04:23:34;;;;;;;;;;;;;;;;;;5039220;28;1129;-78
2022/11/30 04:26:02;;;;;;;;;;;;;;;;;;5040914;28;1079;-78
2022/11/30 04:28:29;;;;;;;;;;;;;;;;;;5039249;28;1079;-78
2022/11/30 04:30:56;;;;;;;;;;;;;;;;;;5039993;28;1336;-79
2022/11/30 04:33:22;;;;;;;;;;;;;;;;;;5040903;28;980;-79
2022/11/30 04:35:48;;;;;;;;;;;;;;;;;;5040421;28;833;-79
2022/11/30 04:38:15;;;;;;;;;;;;;;;;;;5040058;28;2193;-78
2022/11/30 04:40:41;;;;;;;;;;;;;;;;;;5039895;28;1310;-79
2022/11/30 04:43:08;;;;;;;;;;;;;;;;;;5036810;28;1769;-78
2022/11/30 04:45:35;;;;;;;;;;;;;;;;;;5039506;28;1209;-79
2022/11/30 04:48:02;;;;;;;;;;;;;;;;;;5040991;28;996;-79
2022/11/30 04:50:28;;;;;;;;;;;;;;;;;;5055224;28;1293;-79
2022/11/30 04:52:54;;;;;;;;;;;;;;;;;;5060609;28;1119;-78
2022/11/30 04:55:20;;;;;;;;;;;;;;;;;;5042905;28;1353;-78
2022/11/30 04:57:46;;;;;;;;;;;;;;;;;;5042695;28;1249;-78
2022/11/30 05:00:13;;;;;;;;;;;;;;;;;;5060545;28;1973;-78
2022/11/30 05:02:41;;;;;;;;;;;;;;;;;;5058825;28;932;-79
2022/11/30 05:05:07;;;;;;;;;;;;;;;;;;5060188;28;1091;-78
2022/11/30 05:07:33;;;;;;;;;;;;;;;;;;5055293;28;1487;-79
2022/11/30 05:10:00;;;;;;;;;;;;;;;;;;5059278;28;1507;-78
2022/11/30 05:12:26;;;;;;;;;;;;;;;;;;5058915;28;1083;-78
2022/11/30 05:14:52;;;;;;;;;;;;;;;;;;5060403;28;1353;-78
2022/11/30 05:17:18;;;;;;;;;;;;;;;;;;5040983;28;1060;-78
2022/11/30 05:19:46;;;;;;;;;;;;;;;;;;5039711;28;1981;-79
2022/11/30 05:22:12;;;;;;;;;;;;;;;;;;5043893;28;1483;-78
2022/11/30 05:24:38;;;;;;;;;;;;;;;;;;5058903;28;1240;-79
2022/11/30 05:27:04;;;;;;;;;;;;;;;;;;5058933;28;941;-79
2022/11/30 05:29:31;;;;;;;;;;;;;;;;;;5052814;28;1402;-79
2022/11/30 05:31:57;;;;;;;;;;;;;;;;;;5054329;28;1404;-79
2022/11/30 05:34:23;;;;;;;;;;;;;;;;;;5041759;28;1206;-79
2022/11/30 05:36:51;;;;;;;;;;;;;;;;;;5059433;28;925;-78
2022/11/30 05:39:17;;;;;;;;;;;;;;;;;;5037713;28;1976;-79
2022/11/30 05:41:43;;;;;;;;;;;;;;;;;;5047443;28;1352;-79
2022/11/30 05:44:10;;;;;;;;;;;;;;;;;;5052804;28;1390;-80
2022/11/30 05:46:36;;;;;;;;;;;;;;;;;;5053454;28;1453;-77
2022/11/30 05:49:02;;;;;;;;;;;;;;;;;;5062203;28;1592;-78
2022/11/30 05:51:28;;;;;;;;;;;;;;;;;;5065821;28;1237;-79
2022/11/30 05:53:56;;;;;;;;;;;;;;;;;;5060724;28;1163;-78
2022/11/30 05:56:22;;;;;;;;;;;;;;;;;;5058007;28;1164;-78
2022/11/30 05:58:49;;;;;;;;;;;;;;;;;;5057756;28;1914;-78
2022/11/30 06:01:18;;;;;;;;;;;;;;;;;;5057133;28;1063;-77
2022/11/30 06:03:45;;;;;;;;;;;;;;;;;;5056578;28;1079;-78
2022/11/30 06:06:11;;;;;;;;;;;;;;;;;;5056253;28;933;-78
2022/11/30 06:08:37;;;;;;;;;;;;;;;;;;5056038;28;1379;-77
2022/11/30 06:11:05;;;;;;;;;;;;;;;;;;5056347;28;1122;-78
2022/11/30 06:13:31;;;;;;;;;;;;;;;;;;5055577;28;956;-78
2022/11/30 06:15:58;;;;;;;;;;;;;;;;;;5055638;28;1072;-78
2022/11/30 06:18:24;;;;;;;;;;;;;;;;;;5054768;28;1325;-78
2022/11/30 06:20:50;;;;;;;;;;;;;;;;;;5055726;28;1914;-78
2022/11/30 06:23:16;;;;;;;;;;;;;;;;;;5055229;28;1076;-79
2022/11/30 06:25:43;;;;;;;;;;;;;;;;;;5066521;28;1086;-78
2022/11/30 06:28:10;;;;;;;;;;;;;;;;;;5068851;28;1099;-79
2022/11/30 06:30:36;;;;;;;;;;;;;;;;;;5065685;28;1455;-79
2022/11/30 06:33:03;;;;;;;;;;;;;;;;;;5047293;28;1446;-78
2022/11/30 06:35:29;;;;;;;;;;;;;;;;;;5048781;28;1456;-79
2022/11/30 06:37:56;;;;;;;;;;;;;;;;;;5046623;28;1354;-78
2022/11/30 06:40:22;;;;;;;;;;;;;;;;;;5036898;28;1952;-78
2022/11/30 06:42:49;;;;;;;;;;;;;;;;;;5036660;28;1022;-76
2022/11/30 06:45:16;;;;;;;;;;;;;;;;;;5035363;28;1338;-77
2022/11/30 06:47:43;;;;;;;;;;;;;;;;;;5050211;28;1115;-77
2022/11/30 06:50:09;;;;;;;;;;;;;;;;;;5050854;28;1443;-79
2022/11/30 06:52:35;;;;;;;;;;;;;;;;;;5053088;28;1411;-78
2022/11/30 06:55:02;;;;;;;;;;;;;;;;;;5045354;28;1569;-75
2022/11/30 06:57:28;;;;;;;;;;;;;;;;;;5046303;28;1165;-77
2022/11/30 06:59:55;;;;;;;;;;;;;;;;;;5036508;28;1981;-78
2022/11/30 07:02:22;;;;;;;;;;;;;;;;;;5036700;28;1403;-77
2022/11/30 07:04:48;;;;;;;;;;;;;;;;;;5024957;28;1439;-77
2022/11/30 07:07:14;;;;;;;;;;;;;;;;;;5046025;28;1508;-77
2022/11/30 07:09:41;;;;;;;;;;;;;;;;;;5052193;28;1422;-79
2022/11/30 07:12:07;;;;;;;;;;;;;;;;;;5049203;28;1131;-77
2022/11/30 07:14:34;;;;;;;;;;;;;;;;;;5043677;28;1455;-77
2022/11/30 07:17:03;;;;;;;;;;;;;;;;;;5050975;28;1300;-79
2022/11/30 07:19:31;;;;;;;;;;;;;;;;;;5046906;28;1977;-77
2022/11/30 07:21:57;;;;;;;;;;;;;;;;;;5053747;28;1111;-78
2022/11/30 07:27:07;;;;;;;;;;;;;;;;;;5052483;28;1471;-77
2022/11/30 07:29:33;;;;;;;;;;;;;;;;;;5054612;28;1395;-78
2022/11/30 07:32:00;;;;;;;;;;;;;;;;;;5053427;28;839;-78
2022/11/30 07:34:26;;;;;;;;;;;;;;;;;;5054633;28;981;-78
2022/11/30 07:36:53;;;;;;;;;;;;;;;;;;5048268;28;1496;-76
2022/11/30 07:39:20;;;;;;;;;;;;;;;;;;5044584;28;1910;-78
2022/11/30 07:41:46;;;;;;;;;;;;;;;;;;5046577;28;1491;-76
2022/11/30 07:44:12;;;;;;;;;;;;;;;;;;5048116;28;1610;-77
2022/11/30 07:46:38;;;;;;;;;;;;;;;;;;5037382;28;1256;-77
2022/11/30 07:49:05;;;;;;;;;;;;;;;;;;5050003;28;1324;-78
2022/11/30 07:51:32;;;;;;;;;;;;;;;;;;5064626;22;3626;-76
2022/11/30 07:53:59;;;;;;;;;;;;;;;;;;5035899;28;1451;-75
2022/11/30 07:56:26;;;;;;;;;;;;;;;;;;5048135;28;1698;-77
2022/11/30 07:58:53;;;;;;;;;;;;;;;;;;5051991;28;1213;-75
2022/11/30 08:01:21;;;;;;;;;;;;;;;;;;5030917;28;1918;-74
2022/11/30 08:03:47;;;;;;;;;;;;;;;;;;5036265;28;1583;-76
2022/11/30 08:06:14;;;;;;;;;;;;;;;;;;5044585;28;1435;-76
2022/11/30 08:08:41;;;;;;;;;;;;;;;;;;5050185;28;1435;-76
2022/11/30 08:11:09;;;;;;;;;;;;;;;;;;5033555;28;1596;-75
2022/11/30 08:13:35;;;;;;;;;;;;;;;;;;5048067;28;1491;-76
2022/11/30 08:16:02;;;;;;;;;;;;;;;;;;5044293;28;1640;-76
2022/11/30 08:18:28;;;;;;;;;;;;;;;;;;5051668;28;1089;-76
2022/11/30 08:20:58;;;;;;;;;;;;;;;;;;5027701;28;1914;-77
2022/11/30 08:23:25;;;;;;;;;;;;;;;;;;5033680;28;1147;-76
2022/11/30 08:25:51;;;;;;;;;;;;;;;;;;5047162;28;1432;-76
2022/11/30 08:28:18;;;;;;;;;;;;;;;;;;5051261;28;1182;-76
2022/11/30 08:30:45;;;;;;;;;;;;;;;;;;5051156;28;1313;-77
2022/11/30 08:33:11;;;;;;;;;;;;;;;;;;5050514;28;1068;-76
2022/11/30 08:35:37;;;;;;;;;;;;;;;;;;5038798;28;1410;-76
2022/11/30 08:38:03;;;;;;;;;;;;;;;;;;5043360;28;1137;-78
2022/11/30 08:40:30;;;;;;;;;;;;;;;;;;5053152;28;1915;-77
2022/11/30 08:42:56;;;;;;;;;;;;;;;;;;5050565;28;1381;-77
2022/11/30 08:45:23;;;;;;;;;;;;;;;;;;5049203;28;1557;-76
2022/11/30 08:47:50;;;;;;;;;;;;;;;;;;5047601;28;1453;-77
2022/11/30 08:50:17;;;;;;;;;;;;;;;;;;5051573;28;1130;-77
2022/11/30 08:52:43;;;;;;;;;;;;;;;;;;5051012;28;1127;-76
2022/11/30 08:55:09;;;;;;;;;;;;;;;;;;5056180;28;992;-76
2022/11/30 08:57:35;;;;;;;;;;;;;;;;;;5055733;28;1451;-76
2022/11/30 09:00:02;;;;;;;;;;;;;;;;;;5055106;28;1981;-78
2022/11/30 09:02:30;;;;;;;;;;;;;;;;;;5055617;28;1351;-75
2022/11/30 09:04:56;;;;;;;;;;;;;;;;;;5055672;28;1015;-76
2022/11/30 09:07:22;;;;;;;;;;;;;;;;;;5055914;28;842;-76
2022/11/30 09:09:48;;;;;;;;;;;;;;;;;;5043754;28;1930;-75
2022/11/30 09:12:14;;;;;;;;;;;;;;;;;;5029268;28;1498;-77
2022/11/30 09:14:41;;;;;;;;;;;;;;;;;;5048851;28;1435;-77
2022/11/30 09:17:07;;;;;;;;;;;;;;;;;;5056416;28;1434;-76
2022/11/30 09:19:35;;;;;;;;;;;;;;;;;;5059980;28;1178;-77
2022/11/30 09:22:01;;;;;;;;;;;;;;;;;;5069620;28;1989;-78
2022/11/30 09:24:27;;;;;;;;;;;;;;;;;;5074130;28;1923;-78
2022/11/30 09:26:54;;;;;;;;;;;;;;;;;;5059053;28;1913;-77
2022/11/30 09:29:20;;;;;;;;;;;;;;;;;;5059851;28;1637;-76
2022/11/30 09:31:48;;;;;;;;;;;;;;;;;;5054257;28;1487;-77
2022/11/30 09:34:14;;;;;;;;;;;;;;;;;;5049732;28;1286;-78
2022/11/30 09:36:41;;;;;;;;;;;;;;;;;;5055602;28;1550;-77
2022/11/30 09:39:09;;;;;;;;;;;;;;;;;;5054234;28;1486;-77
2022/11/30 09:41:53;;;;;;;;;;;;;;;;;;5050385;28;1927;-77
2022/11/30 09:44:21;;;;;;;;;;;;;;;;;;5049899;28;1985;-77
2022/11/30 09:46:49;;;;;;;;;;;;;;;;;;5046409;28;1193;-77
2022/11/30 09:49:17;;;;;;;;;;;;;;;;;;5050931;28;1471;-77
2022/11/30 09:51:45;;;;;;;;;;;;;;;;;;5056086;28;1594;-77
2022/11/30 09:54:13;;;;;;;;;;;;;;;;;;5060688;28;1534;-77
2022/11/30 09:56:39;;;;;;;;;;;;;;;;;;5058324;28;1427;-76
2022/11/30 09:59:07;;;;;;;;;;;;;;;;;;5054067;28;1580;-77
2022/11/30 10:01:33;;;;;;;;;;;;;;;;;;5057913;28;1906;-77
2022/11/30 10:04:01;;;;;;;;;;;;;;;;;;5034456;28;1561;-76
2022/11/30 10:06:29;;;;;;;;;;;;;;;;;;5049108;28;1236;-77
2022/11/30 10:09:09;;;;;;;;;;;;;;;;;;5069442;28;1390;-77
2022/11/30 10:11:41;;;;;;;;;;;;;;;;;;5069433;28;1414;-77
2022/11/30 10:14:22;;;;;;;;;;;;;;;;;;5070826;28;1500;-77
2022/11/30 10:16:50;;;;;;;;;;;;;;;;;;5031918;28;1407;-77
2022/11/30 10:19:19;;;;;;;;;;;;;;;;;;5046835;28;1397;-76
2022/11/30 10:21:51;;;;;;;;;;;;;;;;;;5084717;28;1953;-77
2022/11/30 10:24:28;;;;;;;;;;;;;;;;;;5072591;28;1133;-76
2022/11/30 10:26:55;;;;;;;;;;;;;;;;;;5049020;28;1996;-77
2022/11/30 10:29:24;;;;;;;;;;;;;;;;;;5045810;28;1527;-78
2022/11/30 10:31:51;;;;;;;;;;;;;;;;;;5047275;28;1435;-78
2022/11/30 10:34:19;;;;;;;;;;;;;;;;;;5040452;28;797;-78
2022/11/30 10:36:46;;;;;;;;;;;;;;;;;;5032316;28;1262;-77
2022/11/30 10:39:14;;;;;;;;;;;;;;;;;;5052936;28;1127;-77
2022/11/30 10:41:42;;;;;;;;;;;;;;;;;;5051967;28;1983;-76
2022/11/30 10:44:10;;;;;;;;;;;;;;;;;;5057910;28;1370;-75
2022/11/30 10:46:37;;;;;;;;;;;;;;;;;;5048122;28;1165;-77
2022/11/30 10:49:05;;;;;;;;;;;;;;;;;;5049716;28;1428;-75
2022/11/30 10:51:31;;;;;;;;;;;;;;;;;;5042883;28;1408;-74
2022/11/30 10:53:58;;;;;;;;;;;;;;;;;;5036433;28;1587;-75
2022/11/30 10:56:25;;;;;;;;;;;;;;;;;;5051150;28;1941;-76
2022/11/30 10:58:54;;;;;;;;;;;;;;;;;;5034377;28;1307;-76
2022/11/30 11:01:31;;;;;;;;;;;;;;;;;;5051645;28;1975;-77
2022/11/30 11:04:06;;;;;;;;;;;;;;;;;;5048442;28;1439;-75
2022/11/30 11:06:32;;;;;;;;;;;;;;;;;;5046033;28;1233;-76
2022/11/30 11:08:59;;;;;;;;;;;;;;;;;;5054664;28;1929;-78
2022/11/30 11:11:26;;;;;;;;;;;;;;;;;;5063425;28;1403;-75
2022/11/30 11:13:53;;;;;;;;;;;;;;;;;;5034001;28;1436;-76
2022/11/30 11:16:20;;;;;;;;;;;;;;;;;;5032190;28;771;-75
2022/11/30 11:18:51;;;;;;;;;;;;;;;;;;5032092;28;1123;-77
2022/11/30 11:21:18;;;;;;;;;;;;;;;;;;5031669;28;1907;-75
2022/11/30 11:23:44;;;;;;;;;;;;;;;;;;5014506;28;1151;-75
2022/11/30 11:26:16;;;;;;;;;;;;;;;;;;5031927;28;822;-75
2022/11/30 11:28:43;;;;;;;;;;;;;;;;;;5014365;28;1021;-75
2022/11/30 11:31:29;;;;;;;;;;;;;;;;;;5031988;28;1307;-75
2022/11/30 11:33:55;;;;;;;;;;;;;;;;;;5031441;28;1021;-75
2022/11/30 11:36:24;;;;;;;;;;;;;;;;;;5031548;28;1414;-76
2022/11/30 11:38:50;;;;;;;;;;;;;;;;;;5051559;28;1071;-76
2022/11/30 11:41:18;;;;;;;;;;;;;;;;;;5050883;28;1914;-74
2022/11/30 11:43:55;;;;;;;;;;;;;;;;;;5051189;28;965;-76
2022/11/30 11:46:23;;;;;;;;;;;;;;;;;;5051680;28;1072;-76
2022/11/30 11:48:56;;;;;;;;;;;;;;;;;;5045404;28;1546;-77
2022/11/30 11:51:28;;;;;;;;;;;;;;;;;;5052049;28;1478;-76
2022/11/30 11:53:55;;;;;;;;;;;;;;;;;;5050315;28;1076;-76
2022/11/30 11:56:22;;;;;;;;;;;;;;;;;;5033437;28;1268;-76
2022/11/30 11:58:49;;;;;;;;;;;;;;;;;;5050853;28;1028;-75
2022/11/30 12:01:17;;;;;;;;;;;;;;;;;;5046861;28;1918;-73
2022/11/30 12:03:45;;;;;;;;;;;;;;;;;;5048998;28;1344;-73
2022/11/30 12:06:13;;;;;;;;;;;;;;;;;;5034895;28;1321;-76
2022/11/30 12:08:42;;;;;;;;;;;;;;;;;;5044317;28;1172;-76
2022/11/30 12:11:09;;;;;;;;;;;;;;;;;;5050934;28;1341;-76
2022/11/30 12:13:37;;;;;;;;;;;;;;;;;;5050349;28;1059;-76
2022/11/30 12:16:05;;;;;;;;;;;;;;;;;;5049657;28;1438;-75
2022/11/30 12:18:33;;;;;;;;;;;;;;;;;;5050354;28;1104;-76
2022/11/30 12:21:02;;;;;;;;;;;;;;;;;;5050738;28;1979;-76
2022/11/30 12:23:33;;;;;;;;;;;;;;;;;;5050138;28;1431;-76
2022/11/30 12:26:00;;;;;;;;;;;;;;;;;;5049502;28;1612;-76
2022/11/30 12:28:27;;;;;;;;;;;;;;;;;;5049065;28;1193;-76
2022/11/30 12:30:57;;;;;;;;;;;;;;;;;;5040725;28;1497;-76
2022/11/30 12:33:26;;;;;;;;;;;;;;;;;;5033282;28;1456;-75
2022/11/30 12:35:56;;;;;;;;;;;;;;;;;;5052325;28;1602;-76
2022/11/30 12:38:26;;;;;;;;;;;;;;;;;;5048016;28;1150;-76
2022/11/30 12:40:55;;;;;;;;;;;;;;;;;;5053892;28;1993;-77
2022/11/30 12:43:23;;;;;;;;;;;;;;;;;;5037825;28;1300;-76
2022/11/30 12:45:49;;;;;;;;;;;;;;;;;;5052699;28;1798;-76
2022/11/30 12:48:22;;;;;;;;;;;;;;;;;;5065465;28;1824;-76
2022/11/30 12:50:51;;;;;;;;;;;;;;;;;;5045510;28;1454;-77
2022/11/30 12:53:19;;;;;;;;;;;;;;;;;;5056596;28;1190;-76
2022/11/30 12:55:48;;;;;;;;;;;;;;;;;;5056251;28;1387;-77
2022/11/30 12:58:16;;;;;;;;;;;;;;;;;;5054666;28;1380;-77
2022/11/30 13:00:45;;;;;;;;;;;;;;;;;;5052523;28;1395;-76
2022/11/30 13:03:18;;;;;;;;;;;;;;;;;;5056250;28;1914;-77
2022/11/30 13:05:45;;;;;;;;;;;;;;;;;;5057298;28;1299;-76
2022/11/30 13:08:12;;;;;;;;;;;;;;;;;;5057308;28;1047;-77
2022/11/30 13:10:40;;;;;;;;;;;;;;;;;;5045466;28;1479;-77
2022/11/30 13:13:08;;;;;;;;;;;;;;;;;;5047294;28;1217;-77
2022/11/30 13:15:34;;;;;;;;;;;;;;;;;;5057225;28;1068;-76
2022/11/30 13:18:01;;;;;;;;;;;;;;;;;;5056713;28;941;-77
2022/11/30 13:20:28;;;;;;;;;;;;;;;;;;5054415;28;1505;-76
2022/11/30 13:22:55;;;;;;;;;;;;;;;;;;5056160;28;1973;-76
2022/11/30 13:25:24;;;;;;;;;;;;;;;;;;5057293;28;930;-76
2022/11/30 13:27:51;;;;;;;;;;;;;;;;;;5046236;28;1418;-76
2022/11/30 13:30:32;;;;;;;;;;;;;;;;;;5059077;28;1185;-75
2022/11/30 13:33:13;;;;;;;;;;;;;;;;;;5045445;28;1412;-76
2022/11/30 13:35:39;;;;;;;;;;;;;;;;;;5062021;28;1407;-76
2022/11/30 13:38:12;;;;;;;;;;;;;;;;;;5070523;28;1353;-78
2022/11/30 13:40:38;;;;;;;;;;;;;;;;;;5068343;28;1392;-77
2022/11/30 13:43:05;;;;;;;;;;;;;;;;;;5048052;28;1898;-78
2022/11/30 13:45:33;;;;;;;;;;;;;;;;;;5055821;28;1375;-78
2022/11/30 13:48:00;;;;;;;;;;;;;;;;;;5052290;28;1395;-77
2022/11/30 13:50:27;;;;;;;;;;;;;;;;;;5043422;28;1468;-78
2022/11/30 13:53:20;;;;;;;;;;;;;;;;;;5048972;22;2085;-79
2022/11/30 13:55:56;;;;;;;;;;;;;;;;;;5017791;28;988;-79
2022/11/30 13:58:23;;;;;;;;;;;;;;;;;;5023597;28;1069;-79
2022/11/30 14:01:19;;;;;;;;;;;;;;;;;;5050319;28;1451;-79
2022/11/30 14:03:47;;;;;;;;;;;;;;;;;;4997613;28;1371;-78
2022/11/30 14:06:28;;;;;;;;;;;;;;;;;;5044576;28;1503;-79
2022/11/30 14:08:54;;;;;;;;;;;;;;;;;;5067228;28;1225;-79
2022/11/30 14:11:35;;;;;;;;;;;;;;;;;;5060873;28;1072;-77
2022/11/30 14:14:16;;;;;;;;;;;;;;;;;;5074700;28;1028;-78
2022/11/30 14:16:42;;;;;;;;;;;;;;;;;;5058446;28;1424;-79
2022/11/30 14:19:10;;;;;;;;;;;;;;;;;;5060398;28;1134;-78
2022/11/30 14:21:36;;;;;;;;;;;;;;;;;;5057090;28;2264;-78
2022/11/30 14:24:03;;;;;;;;;;;;;;;;;;5056056;28;1459;-78
2022/11/30 14:26:30;;;;;;;;;;;;;;;;;;5063210;28;1408;-78
2022/11/30 14:28:58;;;;;;;;;;;;;;;;;;5058723;28;1462;-78
2022/11/30 14:31:25;;;;;;;;;;;;;;;;;;5057909;28;1200;-79
2022/11/30 14:33:54;;;;;;;;;;;;;;;;;;5054959;28;1437;-78
2022/11/30 14:36:22;;;;;;;;;;;;;;;;;;5048878;28;1406;-78
2022/11/30 14:38:48;;;;;;;;;;;;;;;;;;5052871;28;1840;-78
2022/11/30 14:41:18;;;;;;;;;;;;;;;;;;5049670;28;1923;-78
2022/11/30 14:43:56;;;;;;;;;;;;;;;;;;5064237;28;1914;-79
2022/11/30 14:46:25;;;;;;;;;;;;;;;;;;5055013;28;1004;-80
2022/11/30 14:49:03;;;;;;;;;;;;;;;;;;5056178;28;1500;-80
2022/11/30 14:51:30;;;;;;;;;;;;;;;;;;5049390;28;1476;-79
2022/11/30 14:53:58;;;;;;;;;;;;;;;;;;5055928;28;1366;-80
2022/11/30 14:56:25;;;;;;;;;;;;;;;;;;5060768;28;1401;-78
2022/11/30 14:58:53;;;;;;;;;;;;;;;;;;5043747;28;1515;-79
2022/11/30 15:01:19;;;;;;;;;;;;;;;;;;5065508;28;1296;-78
2022/11/30 15:03:46;;;;;;;;;;;;;;;;;;5077734;28;1985;-80
2022/11/30 15:06:14;;;;;;;;;;;;;;;;;;5058971;28;1457;-79
2022/11/30 15:08:42;;;;;;;;;;;;;;;;;;5047038;28;1229;-79
2022/11/30 15:11:09;;;;;;;;;;;;;;;;;;5059088;28;952;-79
2022/11/30 15:13:37;;;;;;;;;;;;;;;;;;5056668;28;1325;-80
2022/11/30 15:16:08;;;;;;;;;;;;;;;;;;5038964;28;1418;-80
2022/11/30 15:18:34;;;;;;;;;;;;;;;;;;5043179;28;1548;-79
2022/11/30 15:21:01;;;;;;;;;;;;;;;;;;5044139;28;1439;-80
2022/11/30 15:23:27;;;;;;;;;;;;;;;;;;5057359;28;1914;-80
2022/11/30 15:25:55;;;;;;;;;;;;;;;;;;5061899;28;1196;-77
2022/11/30 15:28:22;;;;;;;;;;;;;;;;;;5055147;28;895;-78
2022/11/30 15:30:48;;;;;;;;;;;;;;;;;;5056338;28;1543;-77
2022/11/30 15:33:16;;;;;;;;;;;;;;;;;;5058740;28;1610;-78
2022/11/30 15:35:44;;;;;;;;;;;;;;;;;;5060434;28;1071;-78
2022/11/30 15:38:10;;;;;;;;;;;;;;;;;;5045031;28;1509;-78
2022/11/30 15:40:37;;;;;;;;;;;;;;;;;;5043596;28;1013;-78
2022/11/30 15:43:04;;;;;;;;;;;;;;;;;;5041773;28;1962;-79
2022/11/30 15:45:31;;;;;;;;;;;;;;;;;;5069657;28;1115;-76
2022/11/30 15:47:57;;;;;;;;;;;;;;;;;;5048624;28;1174;-78
2022/11/30 15:50:30;;;;;;;;;;;;;;;;;;5047524;28;1424;-78
2022/11/30 15:52:57;;;;;;;;;;;;;;;;;;5044102;28;1427;-79
2022/11/30 15:55:39;;;;;;;;;;;;;;;;;;5060688;28;1142;-77
2022/11/30 15:58:20;;;;;;;;;;;;;;;;;;5060023;28;744;-78
2022/11/30 16:00:58;;;;;;;;;;;;;;;;;;5058613;28;1107;-78
2022/11/30 16:03:24;;;;;;;;;;;;;;;;;;5057031;28;1918;-78
2022/11/30 16:05:53;;;;;;;;;;;;;;;;;;5038183;28;1125;-78
2022/11/30 16:08:19;;;;;;;;;;;;;;;;;;5061977;28;910;-79
2022/11/30 16:10:45;;;;;;;;;;;;;;;;;;5063087;28;1071;-80
2022/11/30 16:13:12;;;;;;;;;;;;;;;;;;5042844;28;1343;-79
2022/11/30 16:15:39;;;;;;;;;;;;;;;;;;5065942;28;1380;-79
2022/11/30 16:18:11;;;;;;;;;;;;;;;;;;5073350;28;1424;-79
2022/11/30 16:20:37;;;;;;;;;;;;;;;;;;5076887;28;1541;-78
2022/11/30 16:23:04;;;;;;;;;;;;;;;;;;5055209;28;1989;-80
2022/11/30 16:25:30;;;;;;;;;;;;;;;;;;5054488;28;1867;-79
2022/11/30 16:27:56;;;;;;;;;;;;;;;;;;5058460;28;1727;-79
2022/11/30 16:30:23;;;;;;;;;;;;;;;;;;5048626;28;1423;-81
2022/11/30 16:32:49;;;;;;;;;;;;;;;;;;5045518;28;1740;-78
2022/11/30 16:35:18;;;;;;;;;;;;;;;;;;5065601;28;1525;-79
2022/11/30 16:37:44;;;;;;;;;;;;;;;;;;5064080;28;1489;-79
2022/11/30 16:40:12;;;;;;;;;;;;;;;;;;5066100;28;1538;-79
2022/11/30 16:42:38;;;;;;;;;;;;;;;;;;5063722;28;1895;-78
2022/11/30 16:45:04;;;;;;;;;;;;;;;;;;5069379;28;1510;-79
2022/11/30 16:47:31;;;;;;;;;;;;;;;;;;5066171;28;1688;-79
2022/11/30 16:49:57;;;;;;;;;;;;;;;;;;5063899;28;1125;-80
2022/11/30 16:52:25;;;;;;;;;;;;;;;;;;5060861;28;1858;-79
2022/11/30 16:54:51;;;;;;;;;;;;;;;;;;5066132;28;1685;-78
2022/11/30 16:57:17;;;;;;;;;;;;;;;;;;5071263;28;1620;-80
2022/11/30 16:59:43;;;;;;;;;;;;;;;;;;5025902;28;1502;-77
2022/11/30 17:02:13;;;;;;;;;;;;;;;;;;4991717;28;1922;-75
2022/11/30 17:04:39;;;;;;;;;;;;;;;;;;5000660;28;1336;-77
2022/11/30 17:07:06;;;;;;;;;;;;;;;;;;4988542;28;1438;-80
2022/11/30 17:09:34;;;;;;;;;;;;;;;;;;4973161;28;814;-80
2022/11/30 17:12:01;;;;;;;;;;;;;;;;;;4971987;28;1374;-79